sensor_id;sensor_type;location;lat;lon;timestamp;P1;durP1;ratioP1;P2;durP2;ratioP2
30096;SDS011;16915;51.466;3.610;2023-07-31T00:02:17;23.52;;;6.63;;
30096;SDS011;16915;51.466;3.610;2023-07-31T00:04:42;25.77;;;7.00;;
30096;SDS011;16915;51.466;3.610;2023-07-31T00:07:08;27.35;;;5.95;;
30096;SDS011;16915;51.466;3.610;2023-07-31T00:09:33;20.38;;;5.50;;
30096;SDS011;16915;51.466;3.610;2023-07-31T00:11:59;24.77;;;6.78;;
30096;SDS011;16915;51.466;3.610;2023-07-31T00:14:25;23.60;;;5.88;;
30096;SDS011;16915;51.466;3.610;2023-07-31T00:16:50;19.85;;;6.47;;
30096;SDS011;16915;51.466;3.610;2023-07-31T00:19:16;27.33;;;6.75;;
30096;SDS011;16915;51.466;3.610;2023-07-31T00:21:42;27.05;;;7.05;;
30096;SDS011;16915;51.466;3.610;2023-07-31T00:24:07;24.13;;;6.38;;
30096;SDS011;16915;51.466;3.610;2023-07-31T00:26:33;30.15;;;7.07;;
30096;SDS011;16915;51.466;3.610;2023-07-31T00:28:58;28.60;;;7.00;;
30096;SDS011;16915;51.466;3.610;2023-07-31T00:31:24;22.63;;;7.10;;
30096;SDS011;16915;51.466;3.610;2023-07-31T00:33:49;24.75;;;6.70;;
30096;SDS011;16915;51.466;3.610;2023-07-31T00:36:15;30.40;;;7.60;;
30096;SDS011;16915;51.466;3.610;2023-07-31T00:38:41;29.45;;;7.25;;
30096;SDS011;16915;51.466;3.610;2023-07-31T00:41:06;27.00;;;8.18;;
30096;SDS011;16915;51.466;3.610;2023-07-31T00:43:32;25.25;;;6.97;;
30096;SDS011;16915;51.466;3.610;2023-07-31T00:45:57;21.65;;;7.03;;
30096;SDS011;16915;51.466;3.610;2023-07-31T00:48:23;31.73;;;7.45;;
30096;SDS011;16915;51.466;3.610;2023-07-31T00:50:49;19.35;;;7.10;;
30096;SDS011;16915;51.466;3.610;2023-07-31T00:53:15;24.77;;;8.10;;
30096;SDS011;16915;51.466;3.610;2023-07-31T00:55:40;27.40;;;7.13;;
30096;SDS011;16915;51.466;3.610;2023-07-31T00:58:07;23.60;;;7.43;;
30096;SDS011;16915;51.466;3.610;2023-07-31T01:00:32;30.40;;;6.95;;
30096;SDS011;16915;51.466;3.610;2023-07-31T01:02:58;23.88;;;6.70;;
30096;SDS011;16915;51.466;3.610;2023-07-31T01:05:30;24.63;;;6.13;;
30096;SDS011;16915;51.466;3.610;2023-07-31T01:08:34;20.98;;;6.45;;
30096;SDS011;16915;51.466;3.610;2023-07-31T01:11:06;27.35;;;6.55;;
30096;SDS011;16915;51.466;3.610;2023-07-31T01:13:39;26.10;;;8.05;;
30096;SDS011;16915;51.466;3.610;2023-07-31T01:16:04;22.38;;;7.13;;
30096;SDS011;16915;51.466;3.610;2023-07-31T01:18:30;31.17;;;7.28;;
30096;SDS011;16915;51.466;3.610;2023-07-31T01:20:57;22.40;;;6.00;;
30096;SDS011;16915;51.466;3.610;2023-07-31T01:26:21;25.38;;;6.75;;
30096;SDS011;16915;51.466;3.610;2023-07-31T01:28:53;19.60;;;6.03;;
30096;SDS011;16915;51.466;3.610;2023-07-31T01:31:31;20.65;;;5.45;;
30096;SDS011;16915;51.466;3.610;2023-07-31T01:33:59;22.70;;;6.50;;
30096;SDS011;16915;51.466;3.610;2023-07-31T01:36:26;16.15;;;5.97;;
30096;SDS011;16915;51.466;3.610;2023-07-31T01:38:52;17.35;;;6.15;;
30096;SDS011;16915;51.466;3.610;2023-07-31T01:41:22;25.98;;;6.25;;
30096;SDS011;16915;51.466;3.610;2023-07-31T01:43:47;22.48;;;6.22;;
30096;SDS011;16915;51.466;3.610;2023-07-31T01:46:13;17.90;;;6.43;;
30096;SDS011;16915;51.466;3.610;2023-07-31T01:48:39;17.17;;;5.60;;
30096;SDS011;16915;51.466;3.610;2023-07-31T01:51:04;19.67;;;6.20;;
30096;SDS011;16915;51.466;3.610;2023-07-31T01:53:31;20.05;;;6.00;;
30096;SDS011;16915;51.466;3.610;2023-07-31T01:55:56;20.33;;;5.65;;
30096;SDS011;16915;51.466;3.610;2023-07-31T01:58:22;19.75;;;6.10;;
30096;SDS011;16915;51.466;3.610;2023-07-31T02:00:48;22.75;;;6.78;;
30096;SDS011;16915;51.466;3.610;2023-07-31T02:03:13;21.25;;;5.90;;
30096;SDS011;16915;51.466;3.610;2023-07-31T02:05:45;19.70;;;6.30;;
30096;SDS011;16915;51.466;3.610;2023-07-31T02:08:15;21.40;;;6.20;;
30096;SDS011;16915;51.466;3.610;2023-07-31T02:10:41;19.30;;;6.43;;
30096;SDS011;16915;51.466;3.610;2023-07-31T02:13:07;17.27;;;5.55;;
30096;SDS011;16915;51.466;3.610;2023-07-31T02:15:33;22.40;;;5.90;;
30096;SDS011;16915;51.466;3.610;2023-07-31T02:17:58;20.77;;;5.65;;
30096;SDS011;16915;51.466;3.610;2023-07-31T02:20:24;20.90;;;5.65;;
30096;SDS011;16915;51.466;3.610;2023-07-31T02:22:49;24.02;;;6.25;;
30096;SDS011;16915;51.466;3.610;2023-07-31T02:25:15;15.38;;;5.55;;
30096;SDS011;16915;51.466;3.610;2023-07-31T02:27:41;26.27;;;5.43;;
30096;SDS011;16915;51.466;3.610;2023-07-31T02:30:07;19.85;;;5.55;;
30096;SDS011;16915;51.466;3.610;2023-07-31T02:32:33;14.90;;;4.82;;
30096;SDS011;16915;51.466;3.610;2023-07-31T02:34:58;16.33;;;5.43;;
30096;SDS011;16915;51.466;3.610;2023-07-31T02:37:24;20.95;;;5.85;;
30096;SDS011;16915;51.466;3.610;2023-07-31T02:39:50;16.30;;;5.78;;
30096;SDS011;16915;51.466;3.610;2023-07-31T02:42:16;23.38;;;6.25;;
30096;SDS011;16915;51.466;3.610;2023-07-31T02:44:41;15.45;;;5.07;;
30096;SDS011;16915;51.466;3.610;2023-07-31T02:47:07;22.00;;;5.53;;
30096;SDS011;16915;51.466;3.610;2023-07-31T02:49:32;16.52;;;4.68;;
30096;SDS011;16915;51.466;3.610;2023-07-31T02:51:58;18.83;;;5.65;;
30096;SDS011;16915;51.466;3.610;2023-07-31T02:54:24;20.65;;;5.50;;
30096;SDS011;16915;51.466;3.610;2023-07-31T02:56:49;16.75;;;5.20;;
30096;SDS011;16915;51.466;3.610;2023-07-31T02:59:15;19.58;;;5.70;;
30096;SDS011;16915;51.466;3.610;2023-07-31T03:01:41;17.23;;;5.70;;
30096;SDS011;16915;51.466;3.610;2023-07-31T03:04:07;22.60;;;5.93;;
30096;SDS011;16915;51.466;3.610;2023-07-31T03:06:33;20.42;;;6.30;;
30096;SDS011;16915;51.466;3.610;2023-07-31T03:08:58;12.80;;;4.85;;
30096;SDS011;16915;51.466;3.610;2023-07-31T03:11:24;17.52;;;5.45;;
30096;SDS011;16915;51.466;3.610;2023-07-31T03:13:49;21.40;;;5.43;;
30096;SDS011;16915;51.466;3.610;2023-07-31T03:16:15;13.48;;;5.00;;
30096;SDS011;16915;51.466;3.610;2023-07-31T03:18:40;15.85;;;5.10;;
30096;SDS011;16915;51.466;3.610;2023-07-31T03:21:06;22.13;;;5.28;;
30096;SDS011;16915;51.466;3.610;2023-07-31T03:23:32;21.33;;;5.80;;
30096;SDS011;16915;51.466;3.610;2023-07-31T03:25:58;23.30;;;5.50;;
30096;SDS011;16915;51.466;3.610;2023-07-31T03:28:28;16.83;;;5.47;;
30096;SDS011;16915;51.466;3.610;2023-07-31T03:30:54;17.92;;;5.32;;
30096;SDS011;16915;51.466;3.610;2023-07-31T03:33:21;16.88;;;5.32;;
30096;SDS011;16915;51.466;3.610;2023-07-31T03:35:46;17.83;;;5.20;;
30096;SDS011;16915;51.466;3.610;2023-07-31T03:38:12;18.85;;;5.13;;
30096;SDS011;16915;51.466;3.610;2023-07-31T03:40:38;19.73;;;5.80;;
30096;SDS011;16915;51.466;3.610;2023-07-31T03:43:04;19.10;;;4.90;;
30096;SDS011;16915;51.466;3.610;2023-07-31T03:45:30;15.52;;;5.13;;
30096;SDS011;16915;51.466;3.610;2023-07-31T03:47:56;18.63;;;5.25;;
30096;SDS011;16915;51.466;3.610;2023-07-31T03:50:21;15.73;;;5.65;;
30096;SDS011;16915;51.466;3.610;2023-07-31T03:52:47;14.98;;;4.72;;
30096;SDS011;16915;51.466;3.610;2023-07-31T03:55:13;16.92;;;4.65;;
30096;SDS011;16915;51.466;3.610;2023-07-31T03:57:38;20.17;;;5.55;;
30096;SDS011;16915;51.466;3.610;2023-07-31T04:00:04;17.55;;;4.97;;
30096;SDS011;16915;51.466;3.610;2023-07-31T04:02:30;15.32;;;5.35;;
30096;SDS011;16915;51.466;3.610;2023-07-31T04:04:56;15.00;;;5.05;;
30096;SDS011;16915;51.466;3.610;2023-07-31T04:07:21;15.73;;;5.20;;
30096;SDS011;16915;51.466;3.610;2023-07-31T04:09:47;15.65;;;4.75;;
30096;SDS011;16915;51.466;3.610;2023-07-31T04:12:12;14.90;;;5.93;;
30096;SDS011;16915;51.466;3.610;2023-07-31T04:14:38;17.08;;;4.70;;
30096;SDS011;16915;51.466;3.610;2023-07-31T04:17:04;15.90;;;5.10;;
30096;SDS011;16915;51.466;3.610;2023-07-31T04:19:29;21.83;;;5.88;;
30096;SDS011;16915;51.466;3.610;2023-07-31T04:21:55;15.88;;;5.47;;
30096;SDS011;16915;51.466;3.610;2023-07-31T04:24:20;13.68;;;5.05;;
30096;SDS011;16915;51.466;3.610;2023-07-31T04:26:52;15.50;;;5.63;;
30096;SDS011;16915;51.466;3.610;2023-07-31T04:29:18;16.42;;;4.90;;
30096;SDS011;16915;51.466;3.610;2023-07-31T04:31:44;16.33;;;5.57;;
30096;SDS011;16915;51.466;3.610;2023-07-31T04:34:10;17.00;;;5.22;;
30096;SDS011;16915;51.466;3.610;2023-07-31T04:36:36;14.48;;;5.22;;
30096;SDS011;16915;51.466;3.610;2023-07-31T04:39:02;22.63;;;6.18;;
30096;SDS011;16915;51.466;3.610;2023-07-31T04:41:28;16.65;;;5.10;;
30096;SDS011;16915;51.466;3.610;2023-07-31T04:43:53;18.20;;;5.05;;
30096;SDS011;16915;51.466;3.610;2023-07-31T04:46:19;15.35;;;5.35;;
30096;SDS011;16915;51.466;3.610;2023-07-31T04:48:45;18.05;;;5.47;;
30096;SDS011;16915;51.466;3.610;2023-07-31T04:51:10;14.63;;;6.22;;
30096;SDS011;16915;51.466;3.610;2023-07-31T04:53:36;20.63;;;4.70;;
30096;SDS011;16915;51.466;3.610;2023-07-31T04:56:02;19.67;;;6.10;;
30096;SDS011;16915;51.466;3.610;2023-07-31T04:58:28;19.35;;;5.38;;
30096;SDS011;16915;51.466;3.610;2023-07-31T05:00:53;16.80;;;5.35;;
30096;SDS011;16915;51.466;3.610;2023-07-31T05:03:19;16.35;;;5.25;;
30096;SDS011;16915;51.466;3.610;2023-07-31T05:05:44;19.58;;;5.18;;
30096;SDS011;16915;51.466;3.610;2023-07-31T05:08:10;12.98;;;5.40;;
30096;SDS011;16915;51.466;3.610;2023-07-31T05:10:36;18.20;;;4.80;;
30096;SDS011;16915;51.466;3.610;2023-07-31T05:13:01;14.25;;;4.63;;
30096;SDS011;16915;51.466;3.610;2023-07-31T05:15:27;22.02;;;5.53;;
30096;SDS011;16915;51.466;3.610;2023-07-31T05:17:53;8.20;;;4.45;;
30096;SDS011;16915;51.466;3.610;2023-07-31T05:20:19;14.00;;;5.05;;
30096;SDS011;16915;51.466;3.610;2023-07-31T05:22:45;8.27;;;4.50;;
30096;SDS011;16915;51.466;3.610;2023-07-31T05:25:11;15.60;;;4.80;;
30096;SDS011;16915;51.466;3.610;2023-07-31T05:27:36;12.20;;;4.97;;
30096;SDS011;16915;51.466;3.610;2023-07-31T05:30:02;11.90;;;5.13;;
30096;SDS011;16915;51.466;3.610;2023-07-31T05:32:28;12.75;;;4.35;;
30096;SDS011;16915;51.466;3.610;2023-07-31T05:34:54;10.13;;;4.22;;
30096;SDS011;16915;51.466;3.610;2023-07-31T05:37:19;9.45;;;3.80;;
30096;SDS011;16915;51.466;3.610;2023-07-31T05:39:45;17.58;;;4.28;;
30096;SDS011;16915;51.466;3.610;2023-07-31T05:42:10;7.95;;;4.40;;
30096;SDS011;16915;51.466;3.610;2023-07-31T05:44:36;12.23;;;4.40;;
30096;SDS011;16915;51.466;3.610;2023-07-31T05:47:02;9.70;;;4.28;;
30096;SDS011;16915;51.466;3.610;2023-07-31T05:49:27;11.73;;;4.22;;
30096;SDS011;16915;51.466;3.610;2023-07-31T05:51:53;13.43;;;4.25;;
30096;SDS011;16915;51.466;3.610;2023-07-31T05:54:19;14.02;;;4.43;;
30096;SDS011;16915;51.466;3.610;2023-07-31T05:56:44;11.68;;;4.30;;
30096;SDS011;16915;51.466;3.610;2023-07-31T05:59:11;11.23;;;4.25;;
30096;SDS011;16915;51.466;3.610;2023-07-31T06:01:38;7.55;;;4.32;;
30096;SDS011;16915;51.466;3.610;2023-07-31T06:04:04;10.85;;;3.60;;
30096;SDS011;16915;51.466;3.610;2023-07-31T06:06:29;11.38;;;4.30;;
30096;SDS011;16915;51.466;3.610;2023-07-31T06:08:55;9.18;;;3.97;;
30096;SDS011;16915;51.466;3.610;2023-07-31T06:11:21;9.02;;;3.38;;
30096;SDS011;16915;51.466;3.610;2023-07-31T06:13:46;9.98;;;3.97;;
30096;SDS011;16915;51.466;3.610;2023-07-31T06:16:14;10.90;;;3.83;;
30096;SDS011;16915;51.466;3.610;2023-07-31T06:18:40;8.82;;;3.38;;
30096;SDS011;16915;51.466;3.610;2023-07-31T06:21:06;10.98;;;3.80;;
30096;SDS011;16915;51.466;3.610;2023-07-31T06:23:31;10.95;;;3.30;;
30096;SDS011;16915;51.466;3.610;2023-07-31T06:25:57;11.48;;;3.38;;
30096;SDS011;16915;51.466;3.610;2023-07-31T06:28:29;9.40;;;3.72;;
30096;SDS011;16915;51.466;3.610;2023-07-31T06:30:55;6.30;;;3.15;;
30096;SDS011;16915;51.466;3.610;2023-07-31T06:33:21;7.80;;;3.00;;
30096;SDS011;16915;51.466;3.610;2023-07-31T06:35:47;7.03;;;3.53;;
30096;SDS011;16915;51.466;3.610;2023-07-31T06:38:12;9.57;;;3.15;;
30096;SDS011;16915;51.466;3.610;2023-07-31T06:40:38;8.25;;;3.20;;
30096;SDS011;16915;51.466;3.610;2023-07-31T06:43:04;7.78;;;3.65;;
30096;SDS011;16915;51.466;3.610;2023-07-31T06:45:35;6.13;;;4.07;;
30096;SDS011;16915;51.466;3.610;2023-07-31T06:48:01;8.50;;;3.83;;
30096;SDS011;16915;51.466;3.610;2023-07-31T06:50:28;10.75;;;3.50;;
30096;SDS011;16915;51.466;3.610;2023-07-31T06:52:57;5.80;;;3.60;;
30096;SDS011;16915;51.466;3.610;2023-07-31T06:55:23;8.60;;;2.83;;
30096;SDS011;16915;51.466;3.610;2023-07-31T06:57:50;8.02;;;3.28;;
30096;SDS011;16915;51.466;3.610;2023-07-31T07:00:18;8.93;;;3.65;;
30096;SDS011;16915;51.466;3.610;2023-07-31T07:02:44;7.13;;;2.85;;
30096;SDS011;16915;51.466;3.610;2023-07-31T07:05:12;8.18;;;3.28;;
30096;SDS011;16915;51.466;3.610;2023-07-31T07:07:38;8.88;;;3.00;;
30096;SDS011;16915;51.466;3.610;2023-07-31T07:10:04;8.43;;;3.50;;
30096;SDS011;16915;51.466;3.610;2023-07-31T07:12:30;6.80;;;3.30;;
30096;SDS011;16915;51.466;3.610;2023-07-31T07:14:57;6.10;;;2.70;;
30096;SDS011;16915;51.466;3.610;2023-07-31T07:17:23;6.43;;;2.60;;
30096;SDS011;16915;51.466;3.610;2023-07-31T07:19:48;6.90;;;2.45;;
30096;SDS011;16915;51.466;3.610;2023-07-31T07:22:14;3.90;;;2.30;;
30096;SDS011;16915;51.466;3.610;2023-07-31T07:24:40;4.53;;;2.30;;
30096;SDS011;16915;51.466;3.610;2023-07-31T07:27:06;6.03;;;2.63;;
30096;SDS011;16915;51.466;3.610;2023-07-31T07:29:33;5.32;;;2.28;;
30096;SDS011;16915;51.466;3.610;2023-07-31T07:31:59;7.57;;;2.50;;
30096;SDS011;16915;51.466;3.610;2023-07-31T07:34:26;4.93;;;2.60;;
30096;SDS011;16915;51.466;3.610;2023-07-31T07:36:52;4.70;;;2.15;;
30096;SDS011;16915;51.466;3.610;2023-07-31T07:39:18;10.05;;;2.40;;
30096;SDS011;16915;51.466;3.610;2023-07-31T07:41:45;7.47;;;3.10;;
30096;SDS011;16915;51.466;3.610;2023-07-31T07:44:11;7.95;;;2.33;;
30096;SDS011;16915;51.466;3.610;2023-07-31T07:46:37;5.40;;;2.15;;
30096;SDS011;16915;51.466;3.610;2023-07-31T07:49:03;5.18;;;2.03;;
30096;SDS011;16915;51.466;3.610;2023-07-31T07:51:29;6.55;;;1.77;;
30096;SDS011;16915;51.466;3.610;2023-07-31T07:53:56;5.65;;;2.05;;
30096;SDS011;16915;51.466;3.610;2023-07-31T07:56:25;6.28;;;1.92;;
30096;SDS011;16915;51.466;3.610;2023-07-31T07:58:52;4.43;;;1.90;;
30096;SDS011;16915;51.466;3.610;2023-07-31T08:01:18;3.40;;;1.63;;
30096;SDS011;16915;51.466;3.610;2023-07-31T08:03:44;6.90;;;1.80;;
30096;SDS011;16915;51.466;3.610;2023-07-31T08:06:09;5.13;;;2.03;;
30096;SDS011;16915;51.466;3.610;2023-07-31T08:08:36;7.78;;;1.48;;
30096;SDS011;16915;51.466;3.610;2023-07-31T08:11:02;3.00;;;1.67;;
30096;SDS011;16915;51.466;3.610;2023-07-31T08:13:28;2.75;;;1.30;;
30096;SDS011;16915;51.466;3.610;2023-07-31T08:15:54;4.95;;;1.58;;
30096;SDS011;16915;51.466;3.610;2023-07-31T08:18:19;2.47;;;1.20;;
30096;SDS011;16915;51.466;3.610;2023-07-31T08:20:45;4.70;;;1.45;;
30096;SDS011;16915;51.466;3.610;2023-07-31T08:23:11;3.40;;;1.50;;
30096;SDS011;16915;51.466;3.610;2023-07-31T08:25:36;2.97;;;1.20;;
30096;SDS011;16915;51.466;3.610;2023-07-31T08:28:03;1.83;;;1.27;;
30096;SDS011;16915;51.466;3.610;2023-07-31T08:30:29;5.13;;;1.25;;
30096;SDS011;16915;51.466;3.610;2023-07-31T08:32:55;1.40;;;1.10;;
30096;SDS011;16915;51.466;3.610;2023-07-31T08:35:20;1.05;;;0.93;;
30096;SDS011;16915;51.466;3.610;2023-07-31T08:37:46;3.95;;;1.33;;
30096;SDS011;16915;51.466;3.610;2023-07-31T08:40:12;2.60;;;1.83;;
30096;SDS011;16915;51.466;3.610;2023-07-31T08:42:48;3.85;;;2.08;;
30096;SDS011;16915;51.466;3.610;2023-07-31T08:45:15;3.63;;;1.73;;
30096;SDS011;16915;51.466;3.610;2023-07-31T08:47:49;2.03;;;1.70;;
30096;SDS011;16915;51.466;3.610;2023-07-31T08:50:17;2.58;;;2.03;;
30096;SDS011;16915;51.466;3.610;2023-07-31T08:52:44;3.08;;;2.08;;
30096;SDS011;16915;51.466;3.610;2023-07-31T08:55:11;3.83;;;2.75;;
30096;SDS011;16915;51.466;3.610;2023-07-31T08:57:37;5.57;;;2.35;;
30096;SDS011;16915;51.466;3.610;2023-07-31T09:00:07;3.45;;;1.90;;
30096;SDS011;16915;51.466;3.610;2023-07-31T09:02:38;4.18;;;2.00;;
30096;SDS011;16915;51.466;3.610;2023-07-31T09:05:15;3.38;;;1.90;;
30096;SDS011;16915;51.466;3.610;2023-07-31T09:07:42;4.88;;;2.08;;
30096;SDS011;16915;51.466;3.610;2023-07-31T09:10:11;6.32;;;2.45;;
30096;SDS011;16915;51.466;3.610;2023-07-31T09:12:37;4.47;;;2.47;;
30096;SDS011;16915;51.466;3.610;2023-07-31T09:15:03;3.70;;;2.88;;
30096;SDS011;16915;51.466;3.610;2023-07-31T09:17:30;5.57;;;2.08;;
30096;SDS011;16915;51.466;3.610;2023-07-31T09:20:17;5.75;;;2.50;;
30096;SDS011;16915;51.466;3.610;2023-07-31T09:22:45;3.97;;;2.22;;
30096;SDS011;16915;51.466;3.610;2023-07-31T09:25:19;4.25;;;2.38;;
30096;SDS011;16915;51.466;3.610;2023-07-31T09:28:02;4.28;;;2.70;;
30096;SDS011;16915;51.466;3.610;2023-07-31T09:30:30;4.63;;;2.72;;
30096;SDS011;16915;51.466;3.610;2023-07-31T09:33:01;4.93;;;2.88;;
30096;SDS011;16915;51.466;3.610;2023-07-31T09:35:32;4.88;;;2.65;;
30096;SDS011;16915;51.466;3.610;2023-07-31T09:38:05;9.00;;;2.42;;
30096;SDS011;16915;51.466;3.610;2023-07-31T09:40:34;4.65;;;2.50;;
30096;SDS011;16915;51.466;3.610;2023-07-31T09:43:04;4.78;;;1.90;;
30096;SDS011;16915;51.466;3.610;2023-07-31T09:45:36;3.28;;;2.08;;
30096;SDS011;16915;51.466;3.610;2023-07-31T09:48:03;3.33;;;1.88;;
30096;SDS011;16915;51.466;3.610;2023-07-31T09:50:34;4.75;;;2.30;;
30096;SDS011;16915;51.466;3.610;2023-07-31T09:53:06;10.10;;;2.40;;
30096;SDS011;16915;51.466;3.610;2023-07-31T09:55:33;4.53;;;1.85;;
30096;SDS011;16915;51.466;3.610;2023-07-31T09:57:59;4.75;;;1.95;;
30096;SDS011;16915;51.466;3.610;2023-07-31T10:00:30;6.32;;;1.85;;
30096;SDS011;16915;51.466;3.610;2023-07-31T10:02:58;6.32;;;1.50;;
30096;SDS011;16915;51.466;3.610;2023-07-31T10:05:27;3.13;;;1.20;;
30096;SDS011;16915;51.466;3.610;2023-07-31T10:07:58;1.77;;;1.10;;
30096;SDS011;16915;51.466;3.610;2023-07-31T10:10:23;2.00;;;1.10;;
30096;SDS011;16915;51.466;3.610;2023-07-31T10:12:52;3.03;;;1.30;;
30096;SDS011;16915;51.466;3.610;2023-07-31T10:15:18;3.45;;;1.27;;
30096;SDS011;16915;51.466;3.610;2023-07-31T10:17:44;1.50;;;1.40;;
30096;SDS011;16915;51.466;3.610;2023-07-31T10:20:12;8.85;;;1.48;;
30096;SDS011;16915;51.466;3.610;2023-07-31T10:22:39;1.50;;;1.00;;
30096;SDS011;16915;51.466;3.610;2023-07-31T10:25:05;1.95;;;1.40;;
30096;SDS011;16915;51.466;3.610;2023-07-31T10:27:34;3.33;;;1.23;;
30096;SDS011;16915;51.466;3.610;2023-07-31T10:30:01;4.15;;;0.80;;
30096;SDS011;16915;51.466;3.610;2023-07-31T10:32:29;1.40;;;1.00;;
30096;SDS011;16915;51.466;3.610;2023-07-31T10:34:55;2.42;;;0.80;;
30096;SDS011;16915;51.466;3.610;2023-07-31T10:39:58;1.42;;;0.80;;
30096;SDS011;16915;51.466;3.610;2023-07-31T10:42:27;3.25;;;1.00;;
30096;SDS011;16915;51.466;3.610;2023-07-31T10:45:04;2.45;;;0.90;;
30096;SDS011;16915;51.466;3.610;2023-07-31T10:47:38;3.95;;;1.08;;
30096;SDS011;16915;51.466;3.610;2023-07-31T10:52:50;0.77;;;0.57;;
30096;SDS011;16915;51.466;3.610;2023-07-31T10:55:31;2.45;;;1.10;;
30096;SDS011;16915;51.466;3.610;2023-07-31T10:58:13;1.65;;;0.90;;
30096;SDS011;16915;51.466;3.610;2023-07-31T11:00:42;2.30;;;0.88;;
30096;SDS011;16915;51.466;3.610;2023-07-31T11:03:10;1.50;;;1.00;;
30096;SDS011;16915;51.466;3.610;2023-07-31T11:05:51;2.25;;;0.90;;
30096;SDS011;16915;51.466;3.610;2023-07-31T11:08:31;3.30;;;1.10;;
30096;SDS011;16915;51.466;3.610;2023-07-31T11:13:31;1.02;;;0.90;;
30096;SDS011;16915;51.466;3.610;2023-07-31T11:15:58;4.38;;;1.25;;
30096;SDS011;16915;51.466;3.610;2023-07-31T11:18:24;4.00;;;1.08;;
30096;SDS011;16915;51.466;3.610;2023-07-31T11:20:52;1.40;;;0.98;;
30096;SDS011;16915;51.466;3.610;2023-07-31T11:23:18;3.40;;;1.20;;
30096;SDS011;16915;51.466;3.610;2023-07-31T11:25:45;4.18;;;1.02;;
30096;SDS011;16915;51.466;3.610;2023-07-31T11:28:11;2.53;;;1.20;;
30096;SDS011;16915;51.466;3.610;2023-07-31T11:30:39;3.53;;;1.30;;
30096;SDS011;16915;51.466;3.610;2023-07-31T11:33:10;1.85;;;1.40;;
30096;SDS011;16915;51.466;3.610;2023-07-31T11:38:11;3.22;;;1.50;;
30096;SDS011;16915;51.466;3.610;2023-07-31T11:40:48;1.77;;;1.20;;
30096;SDS011;16915;51.466;3.610;2023-07-31T11:43:14;3.78;;;1.30;;
30096;SDS011;16915;51.466;3.610;2023-07-31T11:45:42;1.83;;;1.33;;
30096;SDS011;16915;51.466;3.610;2023-07-31T11:48:17;1.80;;;1.70;;
30096;SDS011;16915;51.466;3.610;2023-07-31T11:50:49;1.67;;;1.23;;
30096;SDS011;16915;51.466;3.610;2023-07-31T11:53:16;1.73;;;1.30;;
30096;SDS011;16915;51.466;3.610;2023-07-31T11:55:44;1.55;;;1.40;;
30096;SDS011;16915;51.466;3.610;2023-07-31T11:58:10;2.97;;;1.48;;
30096;SDS011;16915;51.466;3.610;2023-07-31T12:00:36;1.30;;;1.15;;
30096;SDS011;16915;51.466;3.610;2023-07-31T12:03:02;1.23;;;1.15;;
30096;SDS011;16915;51.466;3.610;2023-07-31T12:05:27;2.08;;;0.98;;
30096;SDS011;16915;51.466;3.610;2023-07-31T12:07:54;2.75;;;1.05;;
30096;SDS011;16915;51.466;3.610;2023-07-31T12:10:32;1.55;;;0.90;;
30096;SDS011;16915;51.466;3.610;2023-07-31T12:12:58;1.38;;;1.25;;
30096;SDS011;16915;51.466;3.610;2023-07-31T12:15:36;1.05;;;1.00;;
30096;SDS011;16915;51.466;3.610;2023-07-31T12:18:07;4.90;;;1.20;;
30096;SDS011;16915;51.466;3.610;2023-07-31T12:20:34;4.03;;;1.10;;
30096;SDS011;16915;51.466;3.610;2023-07-31T12:23:00;2.88;;;1.20;;
30096;SDS011;16915;51.466;3.610;2023-07-31T12:25:30;1.90;;;1.05;;
30096;SDS011;16915;51.466;3.610;2023-07-31T12:27:57;2.80;;;1.38;;
30096;SDS011;16915;51.466;3.610;2023-07-31T12:33:02;1.65;;;1.05;;
30096;SDS011;16915;51.466;3.610;2023-07-31T12:35:44;1.50;;;1.05;;
30096;SDS011;16915;51.466;3.610;2023-07-31T12:38:12;1.88;;;1.50;;
30096;SDS011;16915;51.466;3.610;2023-07-31T12:40:38;6.20;;;1.70;;
30096;SDS011;16915;51.466;3.610;2023-07-31T12:43:05;2.03;;;1.75;;
30096;SDS011;16915;51.466;3.610;2023-07-31T12:45:31;1.98;;;1.27;;
30096;SDS011;16915;51.466;3.610;2023-07-31T12:47:58;2.15;;;1.95;;
30096;SDS011;16915;51.466;3.610;2023-07-31T12:50:24;3.75;;;1.42;;
30096;SDS011;16915;51.466;3.610;2023-07-31T12:52:50;3.10;;;1.73;;
30096;SDS011;16915;51.466;3.610;2023-07-31T12:55:16;1.90;;;1.70;;
30096;SDS011;16915;51.466;3.610;2023-07-31T12:57:43;4.03;;;1.77;;
30096;SDS011;16915;51.466;3.610;2023-07-31T13:00:09;2.30;;;1.92;;
30096;SDS011;16915;51.466;3.610;2023-07-31T13:02:35;2.50;;;2.30;;
30096;SDS011;16915;51.466;3.610;2023-07-31T13:05:01;3.35;;;2.20;;
30096;SDS011;16915;51.466;3.610;2023-07-31T13:07:26;4.40;;;2.33;;
30096;SDS011;16915;51.466;3.610;2023-07-31T13:09:52;4.90;;;2.17;;
30096;SDS011;16915;51.466;3.610;2023-07-31T13:12:17;4.88;;;2.20;;
30096;SDS011;16915;51.466;3.610;2023-07-31T13:14:43;3.95;;;1.83;;
30096;SDS011;16915;51.466;3.610;2023-07-31T13:17:09;3.08;;;2.13;;
30096;SDS011;16915;51.466;3.610;2023-07-31T13:19:34;7.20;;;2.45;;
30096;SDS011;16915;51.466;3.610;2023-07-31T13:22:00;3.28;;;2.63;;
30096;SDS011;16915;51.466;3.610;2023-07-31T13:24:25;4.15;;;2.17;;
30096;SDS011;16915;51.466;3.610;2023-07-31T13:26:51;3.30;;;2.03;;
30096;SDS011;16915;51.466;3.610;2023-07-31T13:29:16;7.28;;;2.38;;
30096;SDS011;16915;51.466;3.610;2023-07-31T13:31:42;4.20;;;1.95;;
30096;SDS011;16915;51.466;3.610;2023-07-31T13:34:07;1.90;;;1.80;;
30096;SDS011;16915;51.466;3.610;2023-07-31T13:36:33;4.47;;;2.28;;
30096;SDS011;16915;51.466;3.610;2023-07-31T13:38:59;2.40;;;1.65;;
30096;SDS011;16915;51.466;3.610;2023-07-31T13:41:25;2.53;;;1.10;;
30096;SDS011;16915;51.466;3.610;2023-07-31T13:43:51;1.98;;;1.20;;
30096;SDS011;16915;51.466;3.610;2023-07-31T13:46:17;2.83;;;1.60;;
30096;SDS011;16915;51.466;3.610;2023-07-31T13:48:42;2.70;;;1.42;;
30096;SDS011;16915;51.466;3.610;2023-07-31T13:51:08;4.97;;;1.50;;
30096;SDS011;16915;51.466;3.610;2023-07-31T13:53:33;3.55;;;1.80;;
30096;SDS011;16915;51.466;3.610;2023-07-31T13:55:59;2.15;;;1.75;;
30096;SDS011;16915;51.466;3.610;2023-07-31T13:58:24;6.03;;;1.73;;
30096;SDS011;16915;51.466;3.610;2023-07-31T14:00:50;3.83;;;1.55;;
30096;SDS011;16915;51.466;3.610;2023-07-31T14:03:16;3.20;;;1.38;;
30096;SDS011;16915;51.466;3.610;2023-07-31T14:05:41;2.38;;;1.70;;
30096;SDS011;16915;51.466;3.610;2023-07-31T14:08:07;1.88;;;1.50;;
30096;SDS011;16915;51.466;3.610;2023-07-31T14:10:33;2.85;;;2.03;;
30096;SDS011;16915;51.466;3.610;2023-07-31T14:12:58;3.78;;;1.70;;
30096;SDS011;16915;51.466;3.610;2023-07-31T14:15:24;2.40;;;1.58;;
30096;SDS011;16915;51.466;3.610;2023-07-31T14:17:49;4.88;;;1.58;;
30096;SDS011;16915;51.466;3.610;2023-07-31T14:20:15;1.95;;;1.33;;
30096;SDS011;16915;51.466;3.610;2023-07-31T14:22:40;5.90;;;1.77;;
30096;SDS011;16915;51.466;3.610;2023-07-31T14:25:06;4.55;;;1.40;;
30096;SDS011;16915;51.466;3.610;2023-07-31T14:27:35;5.20;;;1.65;;
30096;SDS011;16915;51.466;3.610;2023-07-31T14:30:00;3.33;;;1.42;;
30096;SDS011;16915;51.466;3.610;2023-07-31T14:32:26;5.43;;;1.40;;
30096;SDS011;16915;51.466;3.610;2023-07-31T14:34:52;8.80;;;1.80;;
30096;SDS011;16915;51.466;3.610;2023-07-31T14:37:17;5.40;;;2.00;;
30096;SDS011;16915;51.466;3.610;2023-07-31T14:39:43;2.35;;;1.48;;
30096;SDS011;16915;51.466;3.610;2023-07-31T14:42:09;5.88;;;1.92;;
30096;SDS011;16915;51.466;3.610;2023-07-31T14:44:34;10.23;;;1.63;;
30096;SDS011;16915;51.466;3.610;2023-07-31T14:47:00;2.08;;;1.38;;
30096;SDS011;16915;51.466;3.610;2023-07-31T14:49:26;1.00;;;1.00;;
30096;SDS011;16915;51.466;3.610;2023-07-31T14:51:53;2.72;;;1.38;;
30096;SDS011;16915;51.466;3.610;2023-07-31T14:54:19;1.63;;;1.10;;
30096;SDS011;16915;51.466;3.610;2023-07-31T14:56:44;1.42;;;1.00;;
30096;SDS011;16915;51.466;3.610;2023-07-31T14:59:10;1.23;;;1.13;;